Smith Hill, Texas
Current Conditions -  °F | °C
As of 10:53 AM on Thursday 18 Dec 2014 (Local Time) from KTXK Reporting Station
Overcast Overcast  
Wind Chill: 44°   Ceiling: 600
Heat Index: 44°   Visibility: 9mi
Dew Point: 42°   Wind: 3mph
Humidity: 93%   Direction: 70°ENE
Pressure: 30.2"   Gusts: NA
Location:  33.474°N, 94.2882°W
Report Text: KTXK 181653Z 07003KT 9SM OVC006 07/06 A3020 RMK AO2 SLP227 T00670056
Loading
Personal Weather Stations






























Interactive Weather Map New forecast layout! Learn more

10-Day Weather Forecast

Advertisements
Track Severe Weather on mobile